Time;durP1;ratioP1;P1;durP2;ratioP2;P2;SDS_P1;SDS_P2;PMS_P1;PMS_P2;Temp;Humidity;BMP_temperature;BMP_pressure;BME280_temperature;BME280_humidity;BME280_pressure;Samples;Min_cycle;Max_cycle;Signal;HPM_P1;HPM_P2
2021/12/25 00:00:51;;;;;;;2.05;1.60;;;;;;;-12.84;90.95;98748.81;5014168;28;20045;-69
2021/12/25 00:03:18;;;;;;;2.42;1.75;;;;;;;-13.01;91.63;98753.75;5014089;28;20065;-69
2021/12/25 00:05:48;;;;;;;2.17;1.88;;;;;;;-13.03;91.18;98752.88;5013932;28;20046;-69
2021/12/25 00:08:15;;;;;;;2.45;1.50;;;;;;;-12.98;91.09;98751.25;5013649;28;20046;-64
2021/12/25 00:10:41;;;;;;;2.20;1.60;;;;;;;-13.01;91.72;98749.56;5013694;28;20507;-64
2021/12/25 00:13:10;;;;;;;4.82;1.83;;;;;;;-13.16;92.16;98756.94;5014178;28;20049;-65
2021/12/25 00:15:38;;;;;;;5.63;1.60;;;;;;;-12.94;91.86;98753.78;5014010;28;20049;-64
2021/12/25 00:18:05;;;;;;;2.60;1.58;;;;;;;-12.96;91.49;98745.44;5012775;28;20060;-68
2021/12/25 00:20:32;;;;;;;;;;;;;;;-12.75;90.86;98742.22;5014170;28;20049;-68
2021/12/25 00:23:00;;;;;;;1.20;1.15;;;;;;;-12.73;90.94;98744.75;5013782;28;20356;-69
2021/12/25 00:25:27;;;;;;;1.42;1.33;;;;;;;-12.83;90.66;98738.00;5013332;28;20496;-68
2021/12/25 00:28:01;;;;;;;1.70;1.60;;;;;;;-12.75;90.35;98733.88;5013817;28;20056;-68
2021/12/25 00:30:37;;;;;;;2.22;1.85;;;;;;;-12.72;90.60;98739.72;5013591;28;20050;-69
2021/12/25 00:33:17;;;;;;;2.28;1.70;;;;;;;-12.69;90.51;98735.56;5013481;28;20045;-68
2021/12/25 00:35:43;;;;;;;1.58;1.35;;;;;;;-12.75;90.76;98737.22;5013185;28;20060;-69
2021/12/25 00:38:10;;;;;;;2.28;1.60;;;;;;;-12.73;90.30;98730.56;5013434;28;20046;-65
2021/12/25 00:40:37;;;;;;;1.33;1.23;;;;;;;-12.85;90.87;98730.47;5013464;28;20484;-69
2021/12/25 00:43:04;;;;;;;2.50;1.58;;;;;;;-12.75;90.80;98731.38;5013466;28;20156;-69
2021/12/25 00:45:33;;;;;;;1.55;1.45;;;;;;;-12.80;90.44;98728.00;5013233;28;20046;-69
2021/12/25 00:47:59;;;;;;;1.83;1.70;;;;;;;-12.78;90.50;98726.34;5013149;28;20057;-64
2021/12/25 00:50:26;;;;;;;2.83;1.40;;;;;;;-12.81;90.88;98729.66;5013441;28;20050;-69
2021/12/25 00:52:53;;;;;;;2.38;1.80;;;;;;;-12.96;91.20;98732.06;5013159;28;20057;-64
2021/12/25 00:55:20;;;;;;;1.58;1.48;;;;;;;-12.75;90.51;98736.38;5013167;28;20050;-69
2021/12/25 00:57:47;;;;;;;2.15;1.90;;;;;;;-12.92;90.79;98738.75;5013068;28;20485;-67
2021/12/25 01:00:15;;;;;;;1.73;1.63;;;;;;;-12.86;91.45;98738.00;5012962;28;20492;-68
2021/12/25 01:02:45;;;;;;;1.55;1.48;;;;;;;-12.84;91.02;98729.66;5012959;28;20045;-68
2021/12/25 01:05:13;;;;;;;1.58;1.45;;;;;;;-12.69;90.31;98728.06;5012758;28;20061;-68
2021/12/25 01:07:41;;;;;;;1.60;1.50;;;;;;;-12.64;89.48;98729.75;5012858;28;20488;-69
2021/12/25 01:10:14;;;;;;;1.40;1.30;;;;;;;-12.77;90.74;98726.34;5012865;28;20515;-69
2021/12/25 01:12:58;;;;;;;1.65;1.55;;;;;;;-12.73;90.68;98729.72;5012967;28;20041;-65
2021/12/25 01:15:33;;;;;;;1.48;1.27;;;;;;;-12.78;90.37;98726.34;5012877;28;20140;-69
2021/12/25 01:21:27;;;;;;;6.13;1.77;;;;;;;-12.86;90.91;98722.97;5012447;28;20054;-68
2021/12/25 01:27:09;;;;;;;1.00;1.00;;;;;;;-12.83;91.04;98706.28;5007825;28;20539;-65
2021/12/25 01:29:43;;;;;;;2.10;1.45;;;;;;;-12.89;90.41;98713.75;5012285;28;20132;-68
2021/12/25 01:35:40;;;;;;;7.75;2.00;;;;;;;-12.95;91.35;98718.72;4990950;28;20058;-69
2021/12/25 01:38:21;;;;;;;1.00;1.00;;;;;;;-12.83;91.18;98716.28;5011918;28;20050;-68
2021/12/25 01:40:57;;;;;;;2.05;1.80;;;;;;;-12.95;90.77;98707.03;5012355;28;20053;-69
2021/12/25 01:48:53;;;;;;;1.13;1.13;;;;;;;-12.84;90.79;98721.28;5012326;28;20065;-69
2021/12/25 01:51:21;;;;;;;1.52;1.45;;;;;;;-12.72;90.22;98716.34;5012393;28;20057;-63
2021/12/25 01:53:48;;;;;;;1.50;1.40;;;;;;;-12.88;90.59;98719.59;5012327;28;20129;-64
2021/12/25 01:56:16;;;;;;;1.48;1.38;;;;;;;-12.77;90.59;98723.84;5012417;28;20054;-64
2021/12/25 01:58:43;;;;;;;1.63;1.52;;;;;;;-12.70;90.47;98719.72;5012249;28;20046;-63
2021/12/25 02:01:11;;;;;;;2.30;1.63;;;;;;;-12.81;90.52;98721.31;5012131;28;20045;-64
2021/12/25 02:03:39;;;;;;;1.50;1.40;;;;;;;-12.78;90.49;98724.69;5012302;28;20046;-64
2021/12/25 02:06:08;;;;;;;1.67;1.58;;;;;;;-12.76;90.56;98725.53;5012114;28;20076;-64
2021/12/25 02:08:37;;;;;;;2.13;1.75;;;;;;;-12.65;90.41;98725.59;5012322;28;20050;-63
2021/12/25 02:11:06;;;;;;;3.53;2.05;;;;;;;-12.90;90.88;98722.09;5012111;28;20489;-63
2021/12/25 02:13:33;;;;;;;1.50;1.40;;;;;;;-12.59;90.27;98709.75;5012221;28;20061;-64
2021/12/25 02:16:05;;;;;;;2.08;1.67;;;;;;;-12.87;90.84;98712.09;5012268;28;20046;-64
2021/12/25 02:18:53;;;;;;;1.70;1.50;;;;;;;-12.93;91.47;98717.91;5012110;28;20074;-64
2021/12/25 02:21:25;;;;;;;;;;;;;;;-12.73;90.37;98714.69;5012191;28;20046;-64
2021/12/25 02:23:52;;;;;;;1.58;1.45;;;;;;;-12.78;91.11;98716.34;5012038;28;20371;-64
2021/12/25 02:26:21;;;;;;;1.67;1.45;;;;;;;-12.66;90.14;98713.03;5011981;28;20046;-65
2021/12/25 02:28:48;;;;;;;1.50;1.40;;;;;;;-12.68;90.26;98714.72;5012700;28;20077;-64
2021/12/25 02:31:17;;;;;;;2.05;1.88;;;;;;;-12.68;90.44;98710.53;5012466;28;20053;-63
2021/12/25 02:33:44;;;;;;;1.67;1.38;;;;;;;-12.61;89.87;98711.41;5011968;28;20096;-64
2021/12/25 02:36:13;;;;;;;1.10;1.10;;;;;;;-12.74;90.39;98715.50;5012098;28;20415;-63
2021/12/25 02:38:42;;;;;;;3.20;1.92;;;;;;;-12.86;91.04;98710.44;5011703;28;20050;-64
2021/12/25 02:41:10;;;;;;;1.58;1.48;;;;;;;-12.78;90.63;98716.34;5011911;28;20491;-64
2021/12/25 02:43:38;;;;;;;2.00;1.58;;;;;;;-12.81;90.79;98711.31;5015667;28;20046;-64
2021/12/25 02:46:05;;;;;;;1.10;1.08;;;;;;;-12.67;90.05;98717.22;5015461;28;20049;-64
2021/12/25 02:48:36;;;;;;;1.50;1.40;;;;;;;-12.67;89.86;98709.69;5015159;28;20511;-64
2021/12/25 02:51:03;;;;;;;2.38;1.60;;;;;;;-12.63;89.64;98708.91;5015259;28;20133;-64
2021/12/25 02:53:30;;;;;;;;;;;;;;;-12.70;89.58;98712.19;5015668;28;20050;-63
2021/12/25 02:55:58;;;;;;;2.13;1.60;;;;;;;-12.89;90.22;98715.41;5015411;28;19921;-63
2021/12/25 02:58:25;;;;;;;2.78;1.95;;;;;;;-12.91;90.58;98707.06;5015181;28;20049;-65
2021/12/25 03:00:53;;;;;;;;;;;;;;;-12.87;89.86;98713.75;5015496;28;20133;-64
2021/12/25 03:03:21;;;;;;;1.05;1.05;;;;;;;-12.87;90.69;98716.25;5015341;28;20289;-64
2021/12/25 03:05:49;;;;;;;1.45;1.35;;;;;;;-12.98;90.96;98716.19;5015017;28;20049;-64
2021/12/25 03:08:16;;;;;;;1.58;1.48;;;;;;;-12.68;90.25;98718.06;5015017;28;20054;-68
2021/12/25 03:10:44;;;;;;;1.17;1.17;;;;;;;-12.74;90.42;98713.84;5015143;28;20049;-64
2021/12/25 03:13:32;;;;;;;3.63;1.58;;;;;;;-12.65;90.09;98709.72;5014900;28;20061;-63
2021/12/25 03:16:01;;;;;;;1.10;1.08;;;;;;;-12.78;90.62;98704.63;5015085;28;20523;-64
2021/12/25 03:18:31;;;;;;;1.88;1.73;;;;;;;-12.72;90.86;98701.31;5014698;28;20463;-65
2021/12/25 03:21:00;;;;;;;2.00;1.80;;;;;;;-12.74;90.36;98693.81;5014836;28;20049;-64
2021/12/25 03:23:28;;;;;;;2.33;1.90;;;;;;;-12.57;90.01;98696.41;5014731;28;20137;-63
2021/12/25 03:25:57;;;;;;;2.33;1.50;;;;;;;-12.55;90.16;98701.44;5014721;28;20058;-65
2021/12/25 03:28:30;;;;;;;3.63;1.60;;;;;;;-12.64;90.40;98699.69;5015008;28;20069;-63
2021/12/25 03:30:59;;;;;;;2.08;1.70;;;;;;;-12.72;90.91;98706.34;5014883;28;20539;-66
2021/12/25 03:33:27;;;;;;;2.15;1.80;;;;;;;-12.63;90.61;98703.88;5014802;28;20050;-64
2021/12/25 03:35:54;;;;;;;1.17;1.17;;;;;;;-12.59;90.86;98702.22;5014615;28;20050;-63
2021/12/25 03:38:22;;;;;;;3.70;1.83;;;;;;;-12.54;90.21;98703.09;5014521;28;20508;-63
2021/12/25 03:40:49;;;;;;;;;;;;;;;-12.58;90.47;98694.72;5014753;28;20050;-64
2021/12/25 03:43:16;;;;;;;2.00;1.73;;;;;;;-12.67;90.84;98706.38;5014447;28;19944;-64
2021/12/25 03:45:45;;;;;;;;;;;;;;;-12.64;91.05;98701.38;5014697;28;20049;-64
2021/12/25 03:48:16;;;;;;;1.23;1.15;;;;;;;-12.56;90.49;98705.59;5014027;28;19921;-64
2021/12/25 03:57:35;;;;;;;1.80;1.70;;;;;;;-12.59;90.08;98707.22;5014206;28;20145;-64
2021/12/25 03:59:11;;;;;;;1.42;1.30;;;;;;;-12.60;90.38;98715.59;5014106;28;20060;-69
2021/12/25 04:01:46;;;;;;;6.88;1.42;;;;;;;-12.73;90.65;98708.00;5014210;28;20046;-69
2021/12/25 04:04:19;;;;;;;1.10;1.10;;;;;;;-12.67;90.32;98704.69;5014132;28;20041;-69
2021/12/25 04:06:52;;;;;;;1.58;1.48;;;;;;;-12.74;90.49;98700.47;5014150;28;20144;-69
2021/12/25 04:09:24;;;;;;;1.73;1.63;;;;;;;-12.62;89.86;98694.69;5013909;28;20042;-69
2021/12/25 04:11:51;;;;;;;1.80;1.70;;;;;;;-12.68;89.63;98695.50;5014061;28;20042;-67
2021/12/25 04:14:19;;;;;;;1.45;0.98;;;;;;;-12.78;89.92;98691.28;5013850;28;20053;-69
2021/12/25 04:16:47;;;;;;;1.50;1.40;;;;;;;-12.88;89.97;98684.56;5013681;28;20530;-69
2021/12/25 04:19:14;;;;;;;1.65;1.55;;;;;;;-13.04;90.71;98683.63;5013683;28;20046;-69
2021/12/25 04:21:50;;;;;;;3.22;1.88;;;;;;;-13.01;90.25;98688.66;5013630;28;20046;-67
2021/12/25 04:24:17;;;;;;;1.50;1.40;;;;;;;-13.00;90.74;98688.63;5014057;28;20053;-67
2021/12/25 04:26:45;;;;;;;2.78;1.73;;;;;;;-12.83;90.09;98690.41;5013415;28;20469;-69
2021/12/25 04:29:31;;;;;;;1.40;1.30;;;;;;;-12.93;90.49;98697.88;5013900;28;20389;-69
2021/12/25 04:32:30;;;;;;;1.88;1.52;;;;;;;-13.04;90.58;98696.13;5013460;28;20053;-68
2021/12/25 05:02:32;;;;;;;5.18;1.80;;;;;;;-13.06;90.31;98711.13;5013027;28;20084;-68
2021/12/25 05:05:03;;;;;;;2.60;1.80;;;;;;;-13.20;90.65;98710.22;5012758;28;20053;-67
2021/12/25 05:07:30;;;;;;;1.20;1.10;;;;;;;-13.02;90.39;98706.97;5012893;28;20045;-64
2021/12/25 05:09:58;;;;;;;1.50;1.40;;;;;;;-13.22;90.71;98707.69;5012909;28;20089;-64
2021/12/25 05:12:25;;;;;;;1.63;1.50;;;;;;;-13.25;90.68;98704.34;5012926;28;20427;-64
2021/12/25 05:14:52;;;;;;;2.10;1.90;;;;;;;-13.17;90.30;98707.72;5012768;28;20046;-64
2021/12/25 05:17:19;;;;;;;4.18;2.25;;;;;;;-13.33;90.16;98709.31;5012984;28;20058;-63
2021/12/25 05:19:46;;;;;;;1.40;1.30;;;;;;;-13.23;90.27;98707.66;5013056;28;20053;-64
2021/12/25 05:22:17;;;;;;;1.67;1.58;;;;;;;-13.25;90.75;98706.84;5012671;28;20052;-64
2021/12/25 05:24:44;;;;;;;1.73;1.60;;;;;;;-13.22;89.53;98709.38;5012711;28;20086;-64
2021/12/25 05:27:13;;;;;;;1.88;1.48;;;;;;;-13.23;89.98;98708.53;5013015;28;20050;-64
2021/12/25 05:29:41;;;;;;;2.72;1.65;;;;;;;-13.23;90.00;98710.19;5012657;28;20100;-64
2021/12/25 05:32:08;;;;;;;2.47;1.40;;;;;;;-13.07;89.53;98714.47;5012878;28;20046;-64
2021/12/25 05:34:35;;;;;;;2.60;1.70;;;;;;;-13.30;89.64;98711.00;5012663;28;20053;-63
2021/12/25 05:37:03;;;;;;;2.13;1.45;;;;;;;-13.22;89.29;98707.69;5012429;28;20066;-66
2021/12/25 05:39:31;;;;;;;1.48;1.38;;;;;;;-13.06;88.91;98710.31;5012585;28;20050;-63
2021/12/25 05:41:58;;;;;;;1.80;1.33;;;;;;;-13.11;89.03;98701.94;5012526;28;20124;-63
2021/12/25 05:44:26;;;;;;;1.30;1.20;;;;;;;-13.14;88.74;98697.75;5012639;28;20053;-65
2021/12/25 05:46:52;;;;;;;;;;;;;;;-13.20;89.42;98701.03;5013016;28;20050;-64
2021/12/25 05:49:20;;;;;;;1.15;1.05;;;;;;;-13.30;90.20;98693.50;5012014;28;20372;-64
2021/12/25 05:51:47;;;;;;;1.60;1.40;;;;;;;-13.18;89.72;98693.53;5012302;28;20100;-65
2021/12/25 05:54:14;;;;;;;1.33;1.23;;;;;;;-13.24;89.28;98696.00;5012430;28;20049;-64
2021/12/25 05:56:43;;;;;;;1.70;1.52;;;;;;;-13.31;89.37;98699.31;5012347;28;20053;-64
2021/12/25 05:59:09;;;;;;;1.70;1.60;;;;;;;-13.28;89.31;98700.19;5012213;28;20508;-65
2021/12/25 06:01:36;;;;;;;1.25;1.20;;;;;;;-13.46;89.71;98697.50;5012456;28;20087;-66
2021/12/25 06:04:03;;;;;;;1.60;1.50;;;;;;;-13.36;88.92;98700.94;5012226;28;20046;-65
2021/12/25 06:06:30;;;;;;;1.77;1.52;;;;;;;-13.50;88.96;98704.16;5012466;28;20507;-64
2021/12/25 06:08:58;;;;;;;2.38;1.23;;;;;;;-13.62;89.36;98704.06;5011989;28;20480;-64
2021/12/25 06:11:25;;;;;;;1.88;1.75;;;;;;;-13.47;89.35;98693.34;5012453;28;20052;-64
2021/12/25 06:14:05;;;;;;;;;;;;;;;-13.64;89.57;98696.56;5012724;28;20057;-64
2021/12/25 06:16:32;;;;;;;1.10;1.10;;;;;;;-13.61;89.94;98695.75;5013067;28;19926;-64
2021/12/25 06:18:59;;;;;;;1.10;1.08;;;;;;;-13.60;89.87;98700.75;5016139;28;20046;-64
2021/12/25 06:21:27;;;;;;;1.10;1.10;;;;;;;-13.67;89.82;98699.00;5015917;28;20054;-64
2021/12/25 06:23:53;;;;;;;3.22;1.85;;;;;;;-13.68;89.51;98696.50;5015881;28;20489;-64
2021/12/25 06:26:20;;;;;;;1.67;1.58;;;;;;;-13.66;89.63;98702.38;5016081;28;20045;-63
2021/12/25 06:28:47;;;;;;;;;;;;;;;-13.66;89.63;98698.19;5016386;28;20058;-64
2021/12/25 06:31:15;;;;;;;3.40;1.33;;;;;;;-13.67;89.90;98699.00;5015955;28;20240;-63
2021/12/25 06:33:42;;;;;;;1.75;1.58;;;;;;;-13.79;90.26;98696.41;5015724;28;20393;-64
2021/12/25 06:36:09;;;;;;;1.60;1.50;;;;;;;-13.73;90.11;98698.13;5015615;28;20405;-63
2021/12/25 06:38:39;;;;;;;2.05;1.70;;;;;;;-13.81;90.10;98695.56;5015842;28;20042;-64
2021/12/25 06:41:06;;;;;;;1.80;1.70;;;;;;;-13.75;90.27;98695.59;5015730;28;20049;-64
2021/12/25 06:43:32;;;;;;;2.28;1.58;;;;;;;-13.66;89.83;98698.19;5015626;28;20053;-64
2021/12/25 06:45:59;;;;;;;1.73;1.63;;;;;;;-13.73;90.64;98703.13;5015561;28;20050;-64
2021/12/25 06:48:28;;;;;;;1.77;1.67;;;;;;;-13.53;89.44;98699.16;5015417;28;20053;-65
2021/12/25 06:50:55;;;;;;;1.33;1.23;;;;;;;-13.64;89.51;98709.06;5015400;28;20202;-64
2021/12/25 06:53:22;;;;;;;1.75;1.33;;;;;;;-13.58;89.45;98705.78;5015562;28;20050;-65
2021/12/25 06:55:49;;;;;;;1.73;1.50;;;;;;;-13.53;88.40;98700.81;5015405;28;20046;-68
2021/12/25 06:58:15;;;;;;;;;;;;;;;-13.40;88.17;98705.09;5015861;28;20046;-63
2021/12/25 07:00:43;;;;;;;1.00;1.00;;;;;;;-13.55;88.53;98698.28;5015329;28;19921;-69
2021/12/25 07:03:10;;;;;;;1.15;1.15;;;;;;;-13.71;88.70;98701.47;5015139;28;20057;-64
2021/12/25 07:05:38;;;;;;;;;;;;;;;-13.90;89.35;98703.78;5015625;28;20518;-65
2021/12/25 07:08:05;;;;;;;1.10;1.10;;;;;;;-13.78;89.75;98704.75;5015266;28;19921;-69
2021/12/25 07:10:32;;;;;;;;;;;;;;;-13.84;89.59;98698.88;5015718;28;20053;-68
2021/12/25 07:12:58;;;;;;;1.33;1.20;;;;;;;-14.03;89.68;98702.00;5015077;28;19921;-69
2021/12/25 07:15:25;;;;;;;1.67;1.50;;;;;;;-13.91;89.73;98707.13;5014909;28;20056;-69
2021/12/25 07:17:52;;;;;;;1.60;1.50;;;;;;;-13.95;89.46;98709.56;5014871;28;20508;-68
2021/12/25 07:20:19;;;;;;;2.03;1.83;;;;;;;-13.99;89.83;98707.88;5014874;28;20432;-63
2021/12/25 07:22:47;;;;;;;1.13;1.13;;;;;;;-13.90;89.51;98722.94;5015257;28;20045;-65
2021/12/25 07:25:14;;;;;;;1.70;1.60;;;;;;;-14.03;89.92;98714.47;5015007;28;20068;-67
2021/12/25 07:27:41;;;;;;;1.00;1.00;;;;;;;-13.85;89.61;98712.16;5014507;28;20053;-65
2021/12/25 07:30:09;;;;;;;1.63;1.52;;;;;;;-13.75;88.93;98713.09;5014748;28;20046;-63
2021/12/25 07:32:36;;;;;;;1.60;1.50;;;;;;;-13.94;89.67;98711.25;5014767;28;20496;-66
2021/12/25 07:35:04;;;;;;;1.40;1.35;;;;;;;-13.92;89.13;98710.47;5014805;28;20069;-65
2021/12/25 07:37:30;;;;;;;;;;;;;;;-14.17;90.49;98711.84;5014752;28;20050;-64
2021/12/25 07:39:59;;;;;;;1.50;1.38;;;;;;;-14.05;90.13;98716.13;5014355;28;19922;-64
2021/12/25 07:42:25;;;;;;;1.45;1.10;;;;;;;-14.00;89.68;98722.00;5014478;28;20058;-66
2021/12/25 07:44:55;;;;;;;2.10;1.50;;;;;;;-14.21;90.26;98726.78;5014367;28;20057;-68
2021/12/25 07:47:23;;;;;;;1.55;1.45;;;;;;;-14.17;90.17;98729.34;5014518;28;20046;-65
2021/12/25 07:49:51;;;;;;;1.40;1.30;;;;;;;-14.14;89.94;98726.03;5014353;28;20511;-65
2021/12/25 07:52:18;;;;;;;1.48;1.38;;;;;;;-14.11;89.52;98734.41;5014430;28;20404;-69
2021/12/25 07:54:45;;;;;;;1.85;1.30;;;;;;;-14.11;89.39;98746.06;5014266;28;20045;-63
2021/12/25 07:57:13;;;;;;;1.42;1.33;;;;;;;-14.18;89.65;98751.81;5014077;28;20058;-65
2021/12/25 07:59:40;;;;;;;1.88;1.77;;;;;;;-14.22;88.92;98745.09;5014151;28;20050;-65
2021/12/25 08:02:07;;;;;;;1.33;1.23;;;;;;;-14.40;89.89;98750.72;5014519;28;20042;-68
2021/12/25 08:04:34;;;;;;;1.70;1.58;;;;;;;-14.40;89.50;98753.22;5013892;28;20057;-65
2021/12/25 08:07:01;;;;;;;2.33;2.13;;;;;;;-14.32;90.09;98747.47;5014069;28;20053;-64
2021/12/25 08:09:29;;;;;;;2.38;1.80;;;;;;;-14.37;89.36;98748.25;5013699;28;20511;-65
2021/12/25 08:11:56;;;;;;;3.03;1.80;;;;;;;-14.56;89.63;98747.22;5013767;28;20084;-66
2021/12/25 08:14:25;;;;;;;1.92;1.83;;;;;;;-14.61;89.08;98749.66;5013880;28;20508;-68
2021/12/25 08:16:54;;;;;;;2.30;2.10;;;;;;;-14.71;89.61;98747.84;5014037;28;20397;-64
2021/12/25 08:19:21;;;;;;;2.85;1.75;;;;;;;-14.62;90.03;98752.09;5013717;28;20092;-68
2021/12/25 08:21:49;;;;;;;2.55;1.67;;;;;;;-14.73;90.89;98752.81;5013777;28;20153;-68
2021/12/25 08:24:16;;;;;;;1.45;1.35;;;;;;;-14.64;90.36;98752.09;5013839;28;20053;-68
2021/12/25 08:26:43;;;;;;;;;;;;;;;-14.56;89.66;98763.03;5013744;28;20058;-68
2021/12/25 08:29:10;;;;;;;2.88;1.88;;;;;;;-14.75;89.84;98768.56;5013818;28;20399;-68
2021/12/25 08:31:41;;;;;;;1.67;1.58;;;;;;;-14.68;89.98;98767.03;5013451;28;20045;-69
2021/12/25 08:34:08;;;;;;;1.95;1.70;;;;;;;-14.52;90.06;98771.38;5013629;28;20052;-68
2021/12/25 08:36:36;;;;;;;1.70;1.50;;;;;;;-14.41;90.05;98769.00;5013373;28;20381;-68
2021/12/25 08:39:05;;;;;;;2.08;1.95;;;;;;;-14.44;89.92;98767.31;5012569;28;20503;-68
2021/12/25 08:41:32;;;;;;;2.22;1.95;;;;;;;-14.57;90.90;98775.47;5013335;28;20391;-68
2021/12/25 08:44:06;;;;;;;2.08;1.98;;;;;;;-14.45;90.10;98778.13;5013557;28;20052;-69
2021/12/25 08:46:55;;;;;;;6.60;2.10;;;;;;;-14.56;90.32;98774.69;5013334;28;20133;-69
2021/12/25 08:49:28;;;;;;;3.92;1.88;;;;;;;-14.33;89.59;98782.44;5013155;28;20140;-65
2021/12/25 08:51:56;;;;;;;2.05;1.88;;;;;;;-14.23;90.17;98788.38;5013039;28;20076;-68
2021/12/25 08:54:23;;;;;;;2.35;1.67;;;;;;;-14.33;90.76;98790.78;5013392;28;20050;-69
2021/12/25 08:56:50;;;;;;;2.22;1.60;;;;;;;-14.50;90.72;98790.53;5013397;28;20500;-69
2021/12/25 08:59:17;;;;;;;5.60;1.63;;;;;;;-14.28;90.55;98793.31;5012887;28;20057;-68
2021/12/25 09:01:44;;;;;;;1.95;1.75;;;;;;;-14.33;89.91;98787.41;5012660;28;20527;-68
2021/12/25 09:04:11;;;;;;;1.77;1.67;;;;;;;-14.33;89.58;98792.41;5012906;28;20520;-69
2021/12/25 09:06:39;;;;;;;1.85;1.73;;;;;;;-14.12;89.26;98792.72;5012929;28;20050;-68
2021/12/25 09:09:07;;;;;;;1.70;1.60;;;;;;;-14.05;88.95;98794.47;5012712;28;20053;-67
2021/12/25 09:11:34;;;;;;;1.52;1.42;;;;;;;-13.90;88.43;98796.28;5012605;28;20046;-69
2021/12/25 09:14:01;;;;;;;1.77;1.67;;;;;;;-13.97;88.45;98796.19;5012877;28;20046;-69
2021/12/25 09:16:28;;;;;;;1.63;1.52;;;;;;;-13.98;88.58;98795.38;5012488;28;20057;-68
2021/12/25 09:18:55;;;;;;;1.67;1.50;;;;;;;-14.32;88.46;98797.44;5012631;28;20057;-69
2021/12/25 09:21:21;;;;;;;2.20;1.73;;;;;;;-14.35;88.59;98794.91;5012970;28;20056;-69
2021/12/25 09:23:50;;;;;;;2.10;1.50;;;;;;;-14.39;88.72;98793.19;5012523;28;20057;-69
2021/12/25 09:26:18;;;;;;;2.40;1.58;;;;;;;-14.47;88.11;98799.75;5012514;28;20056;-68
2021/12/25 09:28:45;;;;;;;1.60;1.50;;;;;;;-14.50;87.94;98794.72;5012801;28;20112;-69
2021/12/25 09:31:12;;;;;;;2.25;1.77;;;;;;;-14.44;87.98;98801.44;5012574;28;20401;-69
2021/12/25 09:33:39;;;;;;;;;;;;;;;-14.59;88.33;98795.47;5012990;28;20050;-69
2021/12/25 09:36:06;;;;;;;1.70;1.48;;;;;;;-14.81;87.95;98793.47;5012410;28;20414;-69
2021/12/25 09:38:35;;;;;;;1.25;1.20;;;;;;;-14.79;88.56;98792.66;5012295;28;20133;-69
2021/12/25 09:41:05;;;;;;;1.60;1.40;;;;;;;-14.67;88.05;98791.16;5012563;28;20069;-68
2021/12/25 09:43:32;;;;;;;1.42;1.35;;;;;;;-14.62;88.04;98794.56;5012538;28;20049;-68
2021/12/25 09:46:00;;;;;;;2.25;1.65;;;;;;;-14.73;88.70;98794.41;5012393;28;20046;-69
2021/12/25 09:48:26;;;;;;;;;;;;;;;-14.85;88.07;98801.72;5012437;28;20046;-69
2021/12/25 09:50:54;;;;;;;1.38;1.27;;;;;;;-14.88;89.19;98799.19;5014897;28;19921;-67
2021/12/25 09:53:21;;;;;;;1.50;1.40;;;;;;;-14.86;89.59;98800.88;5019058;28;20484;-68
2021/12/25 09:55:48;;;;;;;1.67;1.58;;;;;;;-14.90;88.44;98791.66;5018666;28;20054;-67
2021/12/25 09:58:16;;;;;;;;;;;;;;;-14.97;89.00;98804.88;5019078;28;20052;-69
2021/12/25 10:00:46;;;;;;;1.50;1.40;;;;;;;-15.11;90.09;98803.81;5019013;28;19921;-69
2021/12/25 10:03:13;;;;;;;1.30;1.20;;;;;;;-15.03;89.55;98798.09;5019155;28;20049;-68
2021/12/25 10:05:42;;;;;;;2.15;1.95;;;;;;;-15.02;89.38;98807.28;5018765;28;20050;-70
2021/12/25 10:08:12;;;;;;;2.55;1.77;;;;;;;-14.72;88.06;98814.41;5018684;28;20045;-67
2021/12/25 10:10:42;;;;;;;2.30;1.92;;;;;;;-14.84;88.17;98810.91;5018617;28;20050;-69
2021/12/25 10:13:36;;;;;;;1.55;1.45;;;;;;;-14.71;87.46;98816.09;5018858;28;20054;-68
2021/12/25 10:16:22;;;;;;;2.80;2.38;;;;;;;-14.81;88.36;98823.41;5000440;28;20042;-68
2021/12/25 10:18:49;;;;;;;2.10;1.63;;;;;;;-14.58;86.38;98827.09;5018901;28;20053;-64
2021/12/25 10:21:19;;;;;;;1.20;1.20;;;;;;;-14.76;87.02;98829.31;5018911;28;20511;-68
2021/12/25 10:23:46;;;;;;;2.20;2.00;;;;;;;-14.96;87.28;98839.81;5018808;28;20813;-67
2021/12/25 10:26:22;;;;;;;;;;;;;;;-14.89;86.27;98850.75;5018997;28;20052;-68
2021/12/25 10:28:50;;;;;;;1.50;1.40;;;;;;;-14.96;86.22;98857.28;5018700;28;19943;-68
2021/12/25 10:31:17;;;;;;;1.00;1.00;;;;;;;-15.01;85.97;98858.88;5018280;28;20125;-68
2021/12/25 10:33:49;;;;;;;;;;;;;;;-15.21;85.20;98857.69;5018812;28;20057;-68
2021/12/25 10:36:25;;;;;;;2.70;2.40;;;;;;;-15.19;86.12;98869.38;5018829;28;19922;-68
2021/12/25 10:39:00;;;;;;;1.20;1.20;;;;;;;-15.17;85.95;98872.75;5018524;28;20050;-68
2021/12/25 10:41:27;;;;;;;1.38;1.30;;;;;;;-15.21;85.70;98873.50;5018403;28;20503;-66
2021/12/25 10:44:13;;;;;;;1.70;1.60;;;;;;;-15.33;85.76;98877.41;5018273;28;20390;-68
2021/12/25 10:46:48;;;;;;;1.63;1.52;;;;;;;-15.32;85.99;98887.44;5018001;28;20060;-65
2021/12/25 10:49:16;;;;;;;1.58;1.50;;;;;;;-15.35;85.74;98892.38;5017942;28;20058;-67
2021/12/25 10:51:43;;;;;;;1.77;1.52;;;;;;;-15.42;85.64;98900.53;5017708;28;20058;-67
2021/12/25 10:54:13;;;;;;;;;;;;;;;-15.48;84.82;98912.91;5018782;28;20052;-68
2021/12/25 10:56:42;;;;;;;1.42;1.30;;;;;;;-15.60;85.76;98911.00;5018207;28;19922;-69
2021/12/25 10:59:13;;;;;;;1.30;1.30;;;;;;;-15.49;85.55;98909.53;5018154;28;20049;-68
2021/12/25 11:01:42;;;;;;;1.15;1.15;;;;;;;-15.38;85.45;98917.25;5017731;28;20056;-67
2021/12/25 11:04:31;;;;;;;1.80;1.70;;;;;;;-15.32;85.76;98919.84;5014306;28;20042;-68
2021/12/25 11:06:59;;;;;;;2.03;1.92;;;;;;;-15.45;86.37;98921.28;5015220;28;20502;-69
2021/12/25 11:09:26;;;;;;;3.15;2.63;;;;;;;-15.45;85.62;98918.78;5014827;28;20061;-67
2021/12/25 11:12:16;;;;;;;1.88;1.60;;;;;;;-15.29;86.01;98924.91;5015299;28;20046;-67
2021/12/25 11:14:45;;;;;;;1.23;1.23;;;;;;;-15.51;84.90;98922.78;5014958;28;20050;-65
2021/12/25 11:17:25;;;;;;;1.70;1.60;;;;;;;-15.64;85.87;98932.53;5014838;28;20056;-65
2021/12/25 11:19:59;;;;;;;2.15;1.95;;;;;;;-15.77;85.02;98935.63;5015135;28;20496;-66
2021/12/25 11:22:26;;;;;;;1.27;1.20;;;;;;;-15.72;85.97;98931.59;5014903;28;20092;-68
2021/12/25 11:24:54;;;;;;;2.50;2.30;;;;;;;-15.84;84.81;98947.13;5014809;28;20053;-64
2021/12/25 11:27:22;;;;;;;1.48;1.38;;;;;;;-15.99;85.48;98948.44;5015331;28;20408;-65
2021/12/25 11:29:51;;;;;;;3.80;1.20;;;;;;;-15.93;85.71;98949.41;5014529;28;20408;-67
2021/12/25 11:32:21;;;;;;;1.40;1.30;;;;;;;-15.99;86.09;98945.94;5014716;28;20041;-68
2021/12/25 11:34:49;;;;;;;1.88;1.77;;;;;;;-16.19;84.99;98955.47;5014644;28;20124;-69
2021/12/25 11:37:17;;;;;;;1.13;1.13;;;;;;;-16.09;85.11;98952.38;5014374;28;20050;-67
2021/12/25 11:39:44;;;;;;;2.63;1.80;;;;;;;-16.02;85.36;98954.19;5014211;28;20054;-69
2021/12/25 11:42:12;;;;;;;1.10;1.10;;;;;;;-16.13;85.40;98958.06;5014326;28;20053;-67
2021/12/25 11:44:43;;;;;;;1.35;1.35;;;;;;;-16.14;84.52;98969.69;5014305;28;20125;-69
2021/12/25 11:47:32;;;;;;;1.40;1.30;;;;;;;-16.29;84.84;98971.81;5014270;28;20148;-69
2021/12/25 11:50:01;;;;;;;1.10;1.10;;;;;;;-16.28;85.48;98966.06;5014045;28;20108;-63
2021/12/25 11:52:33;;;;;;;1.30;1.30;;;;;;;-16.18;85.32;98970.44;5014226;28;20484;-63
2021/12/25 11:55:29;;;;;;;1.30;1.20;;;;;;;-16.26;85.02;98975.25;5014119;28;20405;-67
2021/12/25 11:58:05;;;;;;;1.42;1.35;;;;;;;-16.19;85.55;98981.19;5014068;28;20527;-67
2021/12/25 12:00:38;;;;;;;1.58;1.48;;;;;;;-16.22;85.59;98983.63;5014325;28;20421;-66
2021/12/25 12:03:07;;;;;;;1.15;1.15;;;;;;;-16.13;84.66;98987.97;5014134;28;20499;-65
2021/12/25 12:05:36;;;;;;;1.20;1.20;;;;;;;-16.23;85.20;98984.44;5014203;28;20050;-66
2021/12/25 12:08:07;;;;;;;1.60;1.50;;;;;;;-16.19;84.58;98985.34;5014264;28;20054;-64
2021/12/25 12:10:56;;;;;;;1.20;1.20;;;;;;;-16.21;84.22;98994.44;5013796;28;20145;-66
2021/12/25 12:13:26;;;;;;;1.63;1.52;;;;;;;-16.38;84.87;98994.88;5013502;28;20050;-68
2021/12/25 12:15:55;;;;;;;1.58;1.48;;;;;;;-16.49;84.52;98996.25;5013103;28;20053;-67
2021/12/25 12:18:42;;;;;;;1.00;1.00;;;;;;;-16.40;84.93;98995.66;5013853;28;20042;-66
2021/12/25 12:21:35;;;;;;;1.33;1.33;;;;;;;-16.43;85.09;99005.53;5013500;28;20050;-67
2021/12/25 12:24:46;;;;;;;1.23;1.23;;;;;;;-16.43;85.81;99011.34;5013616;28;20050;-64
2021/12/25 12:27:13;;;;;;;1.75;1.65;;;;;;;-16.47;85.37;99007.91;5013493;28;20115;-69
2021/12/25 12:29:51;;;;;;;0.95;0.95;;;;;;;-16.42;85.09;99015.50;5013836;28;20050;-67